Casnovia, Michigan
Current Conditions -  °F | °C
As of 7:15 AM on Saturday 25 Oct 2014 (Local Time) from KFFX Reporting Station
Overcast Overcast  
Wind Chill: 11°   Ceiling: 800
Heat Index: 11°   Visibility: 7mi
Dew Point: 11°   Wind: 9mph
Humidity: 95%   Direction: 270°W
Pressure: 29.82"   Gusts: NA
Location:  43.23°N, 85.79°W
Report Text: KFFX 251115Z AUTO 27008KT 7SM OVC008 12/11 A2982 RMK AO2 T01150108
Loading
Personal Weather Stations






























Interactive Weather Map
Tropical Storm Tracking
New forecast layout! Learn more

10-Day Weather Forecast

Advertisements
Track Severe Weather on mobile